Time;durP1;ratioP1;P1;durP2;ratioP2;P2;SDS_P1;SDS_P2;PMS_P1;PMS_P2;Temp;Humidity;BMP_temperature;BMP_pressure;BME280_temperature;BME280_humidity;BME280_pressure;Samples;Min_cycle;Max_cycle;Signal;HPM_P1;HPM_P2
2021/12/08 00:00:28;;;;;;;2.43;1.67;;;2.50;99.90;;;;;;4820474;29;20103;-91
2021/12/08 00:02:55;;;;;;;3.42;1.75;;;3.20;99.90;;;;;;4822392;29;20062;-92
2021/12/08 00:05:22;;;;;;;5.55;3.13;;;2.60;99.90;;;;;;4844324;29;20050;-89
2021/12/08 00:07:49;;;;;;;;;;;2.40;99.90;;;;;;4826827;29;20070;-90
2021/12/08 00:10:40;;;;;;;3.08;2.10;;;2.80;99.90;;;;;;4834465;29;19932;-91
2021/12/08 00:13:07;;;;;;;5.75;2.47;;;2.40;99.90;;;;;;4823751;29;20050;-91
2021/12/08 00:15:43;;;;;;;4.68;2.28;;;2.40;99.90;;;;;;4838069;29;20078;-91
2021/12/08 00:18:15;;;;;;;5.65;3.30;;;2.40;99.90;;;;;;4809430;29;20447;-90
2021/12/08 00:20:42;;;;;;;8.30;3.08;;;2.60;99.90;;;;;;4807846;29;20062;-91
2021/12/08 00:23:09;;;;;;;10.52;3.25;;;3.20;99.90;;;;;;4838819;29;20046;-90
2021/12/08 00:25:36;;;;;;;4.03;2.63;;;2.50;99.90;;;;;;4838086;29;20076;-91
2021/12/08 00:28:03;;;;;;;11.65;2.97;;;2.50;99.90;;;;;;4838640;29;20162;-92
2021/12/08 00:30:29;;;;;;;3.38;2.58;;;2.40;99.90;;;;;;4843850;29;20641;-90
2021/12/08 00:32:56;;;;;;;3.87;2.70;;;2.50;99.90;;;;;;4808041;29;20058;-92
2021/12/08 00:35:23;;;;;;;5.80;2.67;;;2.50;99.90;;;;;;4818268;29;20061;-92
2021/12/08 00:37:49;;;;;;;2.83;2.63;;;2.50;99.90;;;;;;4838431;29;20058;-91
2021/12/08 00:40:17;;;;;;;2.15;1.98;;;3.40;99.90;;;;;;4847617;29;20042;-90
2021/12/08 00:42:46;;;;;;;4.13;2.42;;;2.50;99.90;;;;;;4823404;29;20050;-91
2021/12/08 00:45:15;;;;;;;3.97;2.55;;;2.50;99.90;;;;;;4837884;29;20442;-91
2021/12/08 00:47:41;;;;;;;3.47;2.40;;;2.50;99.90;;;;;;4820230;29;20130;-90
2021/12/08 00:50:09;;;;;;;3.05;2.75;;;2.50;99.90;;;;;;4848886;29;20072;-91
2021/12/08 00:52:36;;;;;;;2.55;2.28;;;2.60;99.90;;;;;;4837586;29;20123;-91
2021/12/08 00:55:06;;;;;;;5.60;3.38;;;3.10;99.90;;;;;;4807085;29;20089;-91
2021/12/08 00:57:32;;;;;;;6.00;2.85;;;2.60;99.90;;;;;;4839772;29;20839;-93
2021/12/08 00:59:58;;;;;;;3.20;2.53;;;3.40;99.90;;;;;;4838230;29;20046;-91
2021/12/08 01:02:23;;;;;;;4.70;2.77;;;2.60;99.90;;;;;;4821077;29;20135;-91
2021/12/08 01:04:49;;;;;;;7.60;3.53;;;2.70;99.90;;;;;;4792619;29;20046;-91
2021/12/08 01:07:15;;;;;;;2.20;2.00;;;2.70;99.90;;;;;;4847241;29;20078;-89
2021/12/08 01:09:41;;;;;;;9.15;3.33;;;2.70;99.90;;;;;;4799576;29;20116;-91
2021/12/08 01:12:07;;;;;;;9.93;3.55;;;3.30;99.90;;;;;;4811654;29;20051;-92
2021/12/08 01:14:34;;;;;;;7.67;3.57;;;2.70;99.90;;;;;;4788837;29;20414;-93
2021/12/08 01:17:02;;;;;;;7.90;3.03;;;2.80;99.90;;;;;;4837803;29;20299;-94
2021/12/08 01:19:28;;;;;;;4.13;2.67;;;2.70;99.90;;;;;;4819713;29;20070;-91
2021/12/08 01:21:54;;;;;;;7.00;3.43;;;2.80;99.90;;;;;;4803203;29;20073;-91
2021/12/08 01:24:20;;;;;;;4.65;3.33;;;2.80;99.90;;;;;;4821529;29;20066;-91
2021/12/08 01:26:46;;;;;;;6.60;2.90;;;2.90;99.90;;;;;;4806485;29;20046;-91
2021/12/08 01:29:12;;;;;;;3.65;2.30;;;2.90;99.90;;;;;;4806194;29;20490;-92
2021/12/08 01:31:43;;;;;;;9.80;4.10;;;2.80;99.90;;;;;;4819848;29;20115;-90
2021/12/08 01:34:13;;;;;;;3.63;2.38;;;3.30;99.90;;;;;;4837417;29;20060;-91
2021/12/08 01:36:39;;;;;;;4.72;3.30;;;2.80;99.90;;;;;;4819552;29;20121;-91
2021/12/08 01:39:06;;;;;;;4.78;3.15;;;2.80;99.90;;;;;;4822082;29;20072;-91
2021/12/08 01:41:34;;;;;;;4.55;2.88;;;2.80;99.90;;;;;;4821782;29;20075;-91
2021/12/08 01:46:45;;;;;;;8.07;3.17;;;3.10;99.90;;;;;;4847174;29;20078;-91
2021/12/08 01:49:12;;;;;;;5.80;4.63;;;3.50;99.90;;;;;;4837338;29;20073;-92
2021/12/08 01:51:37;;;;;;;10.23;3.22;;;2.80;99.90;;;;;;4821750;29;20046;-91
2021/12/08 01:54:06;;;;;;;3.00;2.57;;;3.10;99.90;;;;;;4814108;29;20074;-90
2021/12/08 01:56:34;;;;;;;3.55;2.42;;;2.80;99.90;;;;;;4820937;29;20125;-92
2021/12/08 01:59:03;;;;;;;4.88;3.13;;;2.80;99.90;;;;;;4806895;29;20061;-91
2021/12/08 02:01:30;;;;;;;6.28;2.65;;;2.80;99.90;;;;;;4829058;29;20071;-92
2021/12/08 02:03:56;;;;;;;6.93;2.92;;;3.60;99.90;;;;;;4800772;29;20080;-92
2021/12/08 02:06:23;;;;;;;2.80;2.43;;;3.00;99.90;;;;;;4794158;29;20128;-89
2021/12/08 02:08:52;;;;;;;6.20;3.35;;;2.90;99.90;;;;;;4812634;29;20085;-92
2021/12/08 02:11:20;;;;;;;7.47;3.45;;;3.50;99.90;;;;;;4822658;29;20383;-91
2021/12/08 02:13:49;;;;;;;6.57;2.65;;;2.90;99.90;;;;;;4792004;29;20494;-92
2021/12/08 02:16:15;;;;;;;4.57;2.83;;;2.90;99.90;;;;;;4821140;29;20054;-92
2021/12/08 02:18:44;;;;;;;8.35;3.42;;;2.90;99.90;;;;;;4788864;29;20058;-91
2021/12/08 02:21:21;;;;;;;5.95;3.97;;;2.80;99.90;;;;;;4806329;29;20046;-92
2021/12/08 02:23:47;;;;;;;2.95;2.65;;;2.80;99.90;;;;;;4811126;29;20083;-92
2021/12/08 02:26:13;;;;;;;2.72;2.13;;;2.80;99.90;;;;;;4793942;29;20532;-92
2021/12/08 02:28:39;;;;;;;3.03;2.25;;;2.80;99.90;;;;;;4790810;29;20046;-92
2021/12/08 02:31:09;;;;;;;6.88;2.58;;;2.80;99.90;;;;;;4806532;29;20471;-91
2021/12/08 02:47:42;;;;;;;6.75;3.17;;;2.80;99.90;;;;;;4822506;29;20073;-92
2021/12/08 02:50:08;;;;;;;3.85;2.47;;;3.00;99.90;;;;;;4820786;29;20118;-92
2021/12/08 02:52:33;;;;;;;5.97;2.93;;;2.90;99.90;;;;;;4801394;29;20034;-89
2021/12/08 02:55:05;;;;;;;3.78;2.67;;;2.90;99.90;;;;;;4843002;29;20327;-90
2021/12/08 02:57:31;;;;;;;4.25;2.78;;;2.70;99.90;;;;;;4825143;29;20118;-89
2021/12/08 02:59:57;;;;;;;6.17;2.80;;;2.90;99.90;;;;;;4813762;29;20042;-93
2021/12/08 03:02:23;;;;;;;3.73;2.67;;;2.90;99.90;;;;;;4805403;29;20054;-92
2021/12/08 03:04:49;;;;;;;4.43;3.50;;;2.90;99.90;;;;;;4815656;29;20053;-90
2021/12/08 03:07:16;;;;;;;4.77;3.37;;;2.90;99.90;;;;;;4816050;29;20058;-92
2021/12/08 03:09:41;;;;;;;9.07;4.28;;;2.90;99.90;;;;;;4805824;29;20398;-92
2021/12/08 03:12:08;;;;;;;8.13;3.30;;;3.80;99.90;;;;;;4802069;29;20042;-92
2021/12/08 03:14:34;;;;;;;5.93;2.95;;;2.90;99.90;;;;;;4808479;29;20119;-90
2021/12/08 03:17:03;;;;;;;5.03;3.37;;;2.90;99.90;;;;;;4805232;29;20510;-92
2021/12/08 03:19:30;;;;;;;6.40;3.95;;;2.90;99.90;;;;;;4808864;29;20043;-91
2021/12/08 03:21:57;;;;;;;3.85;3.15;;;3.00;99.90;;;;;;4819520;29;20122;-91
2021/12/08 03:24:36;;;;;;;8.60;3.65;;;3.60;99.90;;;;;;4813361;29;20099;-93
2021/12/08 03:32:13;;;;;;;8.73;3.95;;;3.00;99.90;;;;;;4825087;29;20138;-91
2021/12/08 03:34:42;;;;;;;6.20;4.13;;;3.50;99.90;;;;;;4818019;29;20056;-90
2021/12/08 03:37:09;;;;;;;7.05;3.88;;;4.00;99.90;;;;;;4829051;29;20166;-91
2021/12/08 03:39:42;;;;;;;6.55;3.88;;;3.10;99.90;;;;;;4820055;29;20050;-89
2021/12/08 03:42:08;;;;;;;8.55;4.95;;;3.90;99.90;;;;;;4809737;29;20167;-93
2021/12/08 03:44:35;;;;;;;4.93;3.85;;;3.10;99.90;;;;;;4808521;29;20046;-91
2021/12/08 03:47:04;;;;;;;5.10;4.13;;;4.10;99.90;;;;;;4815769;29;20150;-92
2021/12/08 03:49:31;;;;;;;4.15;3.38;;;3.20;99.90;;;;;;4829583;29;20047;-92
2021/12/08 03:52:03;;;;;;;7.70;4.28;;;3.20;99.90;;;;;;4781704;29;20087;-92
2021/12/08 03:54:28;;;;;;;5.28;4.22;;;3.20;99.90;;;;;;4800360;29;20058;-91
2021/12/08 03:56:54;;;;;;;6.87;4.67;;;3.80;99.90;;;;;;4816879;29;20054;-93
2021/12/08 03:59:20;;;;;;;5.37;4.20;;;3.30;99.90;;;;;;4808983;29;20056;-93
2021/12/08 04:01:46;;;;;;;6.83;4.70;;;3.30;99.90;;;;;;4826886;29;20050;-92
2021/12/08 04:04:13;;;;;;;6.47;4.33;;;3.30;99.90;;;;;;4802507;29;20112;-92
2021/12/08 04:06:50;;;;;;;7.57;4.55;;;3.30;99.90;;;;;;4808952;29;20129;-92
2021/12/08 04:09:29;;;;;;;7.45;4.45;;;3.30;99.90;;;;;;4784598;29;20054;-92
2021/12/08 04:11:55;;;;;;;10.60;4.47;;;3.30;99.90;;;;;;4794222;29;20050;-93
2021/12/08 04:14:23;;;;;;;6.10;5.20;;;3.60;99.90;;;;;;4806393;29;20061;-92
2021/12/08 04:16:57;;;;;;;8.23;5.32;;;3.60;99.90;;;;;;4807544;29;20054;-92
2021/12/08 04:19:25;;;;;;;6.38;4.35;;;3.30;99.90;;;;;;4799899;29;20039;-93
2021/12/08 04:21:54;;;;;;;7.05;4.53;;;3.30;99.90;;;;;;4807644;29;20058;-93
2021/12/08 04:24:20;;;;;;;8.73;4.22;;;3.90;99.90;;;;;;4793868;29;20062;-91
2021/12/08 04:26:56;;;;;;;5.90;5.30;;;3.40;99.90;;;;;;4805963;29;20062;-90
2021/12/08 04:29:31;;;;;;;6.65;5.18;;;3.40;99.90;;;;;;4823548;29;20504;-92
2021/12/08 04:31:57;;;;;;;7.32;5.47;;;3.40;99.90;;;;;;4809295;29;20057;-92
2021/12/08 04:34:27;;;;;;;7.70;4.75;;;3.50;99.90;;;;;;4826386;29;20085;-91
2021/12/08 04:36:59;;;;;;;9.40;6.40;;;3.50;99.90;;;;;;4836934;29;20050;-92
2021/12/08 04:40:07;;;;;;;6.93;5.72;;;3.50;99.90;;;;;;4826917;29;20125;-92
2021/12/08 04:42:40;;;;;;;7.73;5.47;;;3.60;99.90;;;;;;4802343;29;20115;-92
2021/12/08 04:45:13;;;;;;;15.73;6.13;;;3.60;99.90;;;;;;4801369;29;20129;-93
2021/12/08 04:48:04;;;;;;;7.20;5.53;;;3.60;99.90;;;;;;4807890;29;20494;-90
2021/12/08 04:53:05;;;;;;;32.95;7.18;;;4.00;99.90;;;;;;4802215;29;20054;-92
2021/12/08 05:01:26;;;;;;;12.98;6.30;;;3.80;99.90;;;;;;4822146;29;20050;-92
2021/12/08 05:04:26;;;;;;;14.65;7.47;;;3.90;99.90;;;;;;4792245;29;20058;-88
2021/12/08 05:09:41;;;;;;;15.63;8.05;;;4.00;99.90;;;;;;4823528;29;20145;-93
2021/12/08 05:12:14;;;;;;;12.77;6.43;;;4.10;99.90;;;;;;4820566;29;20111;-93
2021/12/08 05:14:46;;;;;;;8.02;6.50;;;4.00;99.90;;;;;;4822979;29;20047;-93
2021/12/08 05:17:18;;;;;;;5.97;4.80;;;4.10;99.90;;;;;;4798767;29;20061;-93
2021/12/08 05:19:46;;;;;;;11.35;5.78;;;4.10;99.90;;;;;;4807706;29;20046;-93
2021/12/08 05:22:21;;;;;;;16.80;6.15;;;4.10;99.90;;;;;;4807698;29;20057;-92
2021/12/08 05:24:50;;;;;;;7.25;5.93;;;4.10;99.90;;;;;;4792461;29;20046;-92
2021/12/08 05:27:19;;;;;;;5.15;4.55;;;4.00;99.90;;;;;;4796262;29;20043;-92
2021/12/08 05:29:53;;;;;;;8.93;4.78;;;4.10;99.90;;;;;;4822564;29;20516;-93
2021/12/08 05:32:19;;;;;;;10.48;5.70;;;4.10;99.90;;;;;;4806551;29;20134;-93
2021/12/08 05:34:45;;;;;;;8.02;5.95;;;5.10;99.90;;;;;;4792319;29;20066;-91
2021/12/08 05:37:14;;;;;;;6.27;5.67;;;4.10;99.90;;;;;;4790147;29;20049;-93
2021/12/08 05:39:41;;;;;;;7.53;5.18;;;4.90;99.90;;;;;;4806866;29;20814;-92
2021/12/08 05:42:16;;;;;;;5.85;5.25;;;4.10;99.90;;;;;;4806999;29;20042;-92
2021/12/08 05:44:42;;;;;;;7.47;5.10;;;4.20;99.90;;;;;;4805199;29;20061;-90
2021/12/08 05:47:15;;;;;;;6.90;6.05;;;4.20;99.90;;;;;;4807169;29;20057;-92
2021/12/08 05:49:41;;;;;;;12.93;6.13;;;4.30;99.90;;;;;;4821468;29;20050;-91
2021/12/08 05:52:07;;;;;;;7.00;5.10;;;4.30;99.90;;;;;;4790841;29;20053;-91
2021/12/08 05:54:37;;;;;;;6.70;5.50;;;4.30;99.90;;;;;;4820302;29;20054;-92
2021/12/08 05:57:30;;;;;;;7.53;5.03;;;4.30;99.90;;;;;;4789562;29;20046;-92
2021/12/08 05:59:56;;;;;;;9.95;5.15;;;4.40;99.90;;;;;;4809647;29;20054;-92
2021/12/08 06:02:32;;;;;;;;;;;4.40;99.90;;;;;;4806656;29;20077;-91
2021/12/08 06:04:59;;;;;;;6.70;4.50;;;4.40;99.90;;;;;;4806520;29;19924;-93
2021/12/08 06:07:25;;;;;;;;;;;4.50;99.90;;;;;;4821762;29;20058;-92
2021/12/08 06:09:54;;;;;;;5.88;3.92;;;4.80;99.90;;;;;;4776418;29;20333;-91
2021/12/08 06:12:20;;;;;;;6.97;4.80;;;4.50;99.90;;;;;;4805878;29;20038;-92
2021/12/08 06:14:53;;;;;;;7.75;5.00;;;4.80;99.90;;;;;;4799548;29;20057;-92
2021/12/08 06:17:19;;;;;;;9.65;5.32;;;4.40;99.90;;;;;;4791120;29;20136;-92
2021/12/08 06:19:47;;;;;;;6.07;4.10;;;4.60;99.90;;;;;;4786742;29;20042;-93
2021/12/08 06:22:15;;;;;;;7.70;4.28;;;5.00;99.90;;;;;;4820955;29;20038;-92
2021/12/08 06:24:42;;;;;;;8.75;4.60;;;4.50;99.90;;;;;;4791904;29;20043;-90
2021/12/08 06:27:12;;;;;;;13.15;5.03;;;4.50;99.90;;;;;;4807962;29;20057;-87
2021/12/08 06:29:39;;;;;;;5.95;4.65;;;4.50;99.90;;;;;;4798992;29;20049;-93
2021/12/08 06:32:08;;;;;;;4.13;3.70;;;4.70;99.90;;;;;;4821696;29;20047;-87
2021/12/08 06:34:35;;;;;;;7.35;4.45;;;4.50;99.90;;;;;;4820620;29;20042;-92
2021/12/08 06:37:09;;;;;;;7.10;3.92;;;4.40;99.90;;;;;;4790380;29;20061;-90
2021/12/08 06:39:40;;;;;;;4.90;3.80;;;4.40;99.90;;;;;;4834930;29;20046;-89
2021/12/08 06:42:10;;;;;;;8.10;4.13;;;4.50;99.90;;;;;;4791351;29;20414;-89
2021/12/08 06:44:40;;;;;;;6.63;4.63;;;4.40;99.90;;;;;;4809197;29;20494;-88
2021/12/08 06:47:08;;;;;;;7.28;4.13;;;4.40;99.90;;;;;;4793523;29;20133;-89
2021/12/08 06:49:36;;;;;;;5.18;3.90;;;4.40;99.90;;;;;;4790964;29;20050;-92
2021/12/08 06:52:10;;;;;;;7.25;3.13;;;4.30;99.90;;;;;;4807716;29;20050;-92
2021/12/08 06:54:43;;;;;;;7.47;3.20;;;4.30;99.90;;;;;;4822949;29;20506;-90
2021/12/08 06:57:27;;;;;;;4.68;3.78;;;4.30;99.90;;;;;;4819170;29;20514;-89
2021/12/08 07:00:12;;;;;;;4.35;3.20;;;4.20;99.90;;;;;;4806147;29;20490;-91
2021/12/08 07:05:29;;;;;;;6.00;3.40;;;4.10;99.90;;;;;;4819644;29;20055;-91
2021/12/08 07:08:10;;;;;;;7.35;3.10;;;4.20;99.90;;;;;;4821030;29;20453;-92
2021/12/08 07:10:42;;;;;;;8.55;3.85;;;4.20;99.90;;;;;;4802228;29;20057;-92
2021/12/08 07:13:15;;;;;;;4.22;3.03;;;4.90;99.90;;;;;;4820738;29;20057;-90
2021/12/08 07:15:45;;;;;;;5.43;3.42;;;4.20;99.90;;;;;;4805434;29;20133;-88
2021/12/08 07:18:19;;;;;;;4.38;2.97;;;5.00;99.90;;;;;;4820866;29;20086;-89
2021/12/08 07:20:51;;;;;;;7.85;2.72;;;4.10;99.90;;;;;;4830701;29;20570;-88
2021/12/08 07:23:22;;;;;;;8.95;4.30;;;4.10;99.90;;;;;;4805280;29;20087;-88
2021/12/08 07:25:50;;;;;;;5.15;3.50;;;4.20;99.90;;;;;;4821161;29;20046;-91
2021/12/08 07:28:17;;;;;;;4.38;2.72;;;4.70;99.90;;;;;;4813873;29;20054;-89
2021/12/08 07:30:48;;;;;;;6.70;2.75;;;4.00;99.90;;;;;;4820891;29;20058;-89
2021/12/08 07:33:14;;;;;;;4.07;2.10;;;4.70;99.90;;;;;;4790109;29;20138;-90
2021/12/08 07:35:44;;;;;;;5.17;3.63;;;5.00;99.90;;;;;;4811313;29;20117;-89
2021/12/08 07:38:15;;;;;;;6.55;2.63;;;4.00;99.90;;;;;;4804020;29;20054;-90
2021/12/08 07:40:52;;;;;;;5.57;2.60;;;4.00;99.90;;;;;;4802154;29;20122;-91
2021/12/08 07:43:21;;;;;;;2.63;2.42;;;4.00;99.90;;;;;;4820522;29;20491;-90
2021/12/08 07:46:05;;;;;;;2.90;2.10;;;4.00;99.90;;;;;;4805334;29;20073;-90
2021/12/08 07:48:51;;;;;;;5.10;2.65;;;4.00;99.90;;;;;;4805406;29;20057;-91
2021/12/08 07:51:43;;;;;;;7.55;2.38;;;4.10;99.90;;;;;;4819853;29;20406;-89
2021/12/08 07:54:09;;;;;;;4.03;2.10;;;4.10;99.90;;;;;;4793674;29;20133;-92
2021/12/08 07:56:37;;;;;;;3.33;2.60;;;4.10;99.90;;;;;;4805919;29;20052;-92
2021/12/08 07:59:11;;;;;;;3.53;2.28;;;4.40;99.90;;;;;;4819268;29;20094;-89
2021/12/08 08:01:41;;;;;;;3.10;2.67;;;5.00;99.90;;;;;;4814601;29;20080;-92
2021/12/08 08:04:12;;;;;;;5.43;1.95;;;4.10;99.90;;;;;;4827853;29;20062;-90
2021/12/08 08:06:42;;;;;;;4.43;1.85;;;4.10;99.90;;;;;;4828464;29;20051;-92
2021/12/08 08:09:16;;;;;;;2.83;1.90;;;4.30;99.90;;;;;;4818399;29;20053;-92
2021/12/08 08:11:47;;;;;;;12.10;2.25;;;4.90;99.90;;;;;;4790298;29;20066;-93
2021/12/08 08:14:16;;;;;;;3.17;2.00;;;4.10;99.90;;;;;;4825738;29;20127;-87
2021/12/08 08:16:42;;;;;;;1.98;1.45;;;4.20;99.90;;;;;;4823198;29;20518;-89
2021/12/08 08:19:15;;;;;;;8.18;2.15;;;4.40;99.90;;;;;;4809132;29;20136;-89
2021/12/08 08:21:48;;;;;;;2.20;1.70;;;4.20;99.90;;;;;;4826759;29;20741;-87
2021/12/08 08:24:17;;;;;;;5.30;2.10;;;4.20;99.90;;;;;;4793944;29;20086;-88
2021/12/08 08:26:46;;;;;;;5.53;2.30;;;4.20;99.90;;;;;;4822789;29;20055;-88
2021/12/08 08:29:13;;;;;;;5.68;1.98;;;4.20;99.90;;;;;;4793737;29;20058;-89
2021/12/08 08:31:48;;;;;;;4.15;1.92;;;4.20;99.90;;;;;;4793142;29;20046;-89
2021/12/08 08:34:15;;;;;;;6.35;1.75;;;4.30;99.90;;;;;;4799167;29;20043;-88
2021/12/08 08:36:44;;;;;;;2.17;1.98;;;4.70;99.90;;;;;;4815594;29;20078;-89
2021/12/08 08:39:18;;;;;;;4.57;1.65;;;4.30;99.90;;;;;;4822867;29;20054;-89
2021/12/08 08:41:50;;;;;;;8.75;1.90;;;4.30;99.90;;;;;;4808411;29;20425;-89
2021/12/08 08:44:33;;;;;;;3.40;1.85;;;4.30;99.90;;;;;;4793128;29;20487;-89
2021/12/08 08:47:05;;;;;;;4.15;1.75;;;4.30;99.90;;;;;;4823286;29;20046;-88
2021/12/08 08:49:32;;;;;;;8.18;2.15;;;4.40;99.90;;;;;;4823611;29;20120;-87
2021/12/08 08:52:06;;;;;;;7.47;1.92;;;4.50;99.90;;;;;;4825840;29;20053;-85
2021/12/08 08:54:39;;;;;;;6.57;2.33;;;4.70;99.90;;;;;;4809275;29;20054;-85
2021/12/08 08:57:11;;;;;;;4.22;1.83;;;4.90;99.90;;;;;;4795362;29;20054;-87
2021/12/08 08:59:45;;;;;;;3.95;2.47;;;5.50;99.90;;;;;;4793906;29;20097;-88
2021/12/08 09:02:21;;;;;;;4.10;1.85;;;5.40;99.90;;;;;;4796246;29;20055;-88
2021/12/08 09:04:54;;;;;;;9.38;2.03;;;5.60;99.90;;;;;;4823668;29;20055;-88
2021/12/08 09:07:27;;;;;;;2.63;1.70;;;5.60;99.90;;;;;;4809699;29;20504;-88
2021/12/08 09:09:55;;;;;;;6.43;1.75;;;5.60;99.90;;;;;;4794009;29;20054;-88
2021/12/08 09:12:26;;;;;;;2.17;1.90;;;5.40;99.90;;;;;;4809202;29;20055;-88
2021/12/08 09:15:17;;;;;;;1.88;1.00;;;5.30;99.90;;;;;;4808645;29;20053;-88
2021/12/08 09:17:54;;;;;;;3.95;1.55;;;5.20;99.90;;;;;;4808904;29;20054;-88
2021/12/08 09:20:30;;;;;;;8.05;2.10;;;5.10;99.90;;;;;;4794131;29;20062;-88
2021/12/08 09:23:19;;;;;;;7.55;2.10;;;5.00;99.90;;;;;;4793869;29;20194;-88
2021/12/08 09:25:55;;;;;;;3.55;2.17;;;5.00;99.90;;;;;;4793493;29;20086;-87
2021/12/08 09:28:34;;;;;;;5.68;1.45;;;4.90;99.90;;;;;;4809325;29;20402;-87
2021/12/08 09:31:16;;;;;;;6.78;1.73;;;4.90;99.90;;;;;;4794168;29;20090;-88
2021/12/08 09:33:54;;;;;;;2.35;1.63;;;4.20;99.90;;;;;;4808298;29;20494;-87
2021/12/08 09:36:25;;;;;;;2.53;1.92;;;4.80;99.90;;;;;;4793470;29;20054;-88
2021/12/08 09:39:00;;;;;;;3.40;1.50;;;5.50;99.90;;;;;;4793522;29;20066;-88
2021/12/08 09:41:41;;;;;;;1.63;1.30;;;4.80;99.90;;;;;;4793964;29;20413;-88
2021/12/08 09:44:15;;;;;;;9.07;1.70;;;4.80;99.90;;;;;;4808615;29;20050;-88
2021/12/08 09:46:43;;;;;;;3.55;1.65;;;4.80;99.90;;;;;;4807808;29;20061;-87
2021/12/08 09:49:12;;;;;;;5.10;2.58;;;4.80;99.90;;;;;;4793693;29;20066;-88
2021/12/08 09:51:38;;;;;;;5.18;1.95;;;4.80;99.90;;;;;;4792803;29;20058;-88
2021/12/08 09:54:07;;;;;;;4.40;2.92;;;4.90;99.90;;;;;;4793432;29;20145;-87
2021/12/08 09:56:34;;;;;;;4.30;1.45;;;5.20;99.90;;;;;;4823785;29;20076;-88
2021/12/08 09:59:02;;;;;;;7.45;2.17;;;5.40;99.90;;;;;;4807849;29;20405;-88
2021/12/08 10:01:31;;;;;;;1.95;1.50;;;5.50;99.90;;;;;;4808230;29;20494;-88
2021/12/08 10:03:59;;;;;;;4.85;2.15;;;5.60;99.90;;;;;;4820727;29;20074;-88
2021/12/08 10:06:29;;;;;;;3.97;1.85;;;5.80;99.90;;;;;;4838423;29;20058;-88
2021/12/08 10:08:57;;;;;;;3.03;1.50;;;5.80;99.90;;;;;;4838076;29;20104;-88
2021/12/08 10:11:27;;;;;;;5.32;1.85;;;5.80;99.90;;;;;;4838425;29;20058;-88
2021/12/08 10:13:53;;;;;;;6.40;2.03;;;5.70;99.90;;;;;;4807582;29;20149;-89
2021/12/08 10:16:19;;;;;;;4.50;2.00;;;5.60;99.90;;;;;;4823557;29;20061;-88
2021/12/08 10:18:48;;;;;;;8.43;1.95;;;5.80;99.90;;;;;;4838256;29;20137;-88
2021/12/08 10:21:19;;;;;;;4.32;1.90;;;5.90;99.90;;;;;;4808211;29;20138;-89
2021/12/08 10:23:50;;;;;;;2.97;1.80;;;6.00;99.90;;;;;;4823015;29;20447;-87
2021/12/08 10:26:23;;;;;;;6.38;1.88;;;6.10;99.90;;;;;;4807698;29;20046;-88
2021/12/08 10:29:06;;;;;;;;;;;;;;;;;;;;;
2021/12/08 10:31:42;;;;;;;4.57;1.73;;;6.20;99.90;;;;;;4823467;29;20409;-87
2021/12/08 10:37:14;;;;;;;6.78;1.55;;;6.40;99.90;;;;;;4837026;29;20145;-90
2021/12/08 10:39:45;;;;;;;3.33;1.48;;;6.60;99.90;;;;;;4821545;29;20118;-87
2021/12/08 10:42:22;;;;;;;5.20;1.60;;;6.40;99.90;;;;;;4822733;29;20057;-87
2021/12/08 10:47:24;;;;;;;3.33;1.75;;;6.40;99.90;;;;;;4838435;29;20410;-88
2021/12/08 10:55:19;;;;;;;2.72;1.48;;;6.60;99.90;;;;;;4837560;29;20054;-87
2021/12/08 10:57:46;;;;;;;;;;;6.70;99.90;;;;;;4823071;29;20568;-88
2021/12/08 11:00:30;;;;;;;4.00;1.58;;;6.80;99.90;;;;;;4823070;29;20314;-88
2021/12/08 11:02:57;;;;;;;2.53;1.30;;;6.90;99.90;;;;;;4837429;29;20058;-88
2021/12/08 11:05:28;;;;;;;1.40;1.25;;;7.20;99.90;;;;;;4822656;29;20418;-88
2021/12/08 11:08:07;;;;;;;4.45;1.65;;;7.40;99.90;;;;;;4807251;29;20055;-88
2021/12/08 11:10:54;;;;;;;2.25;1.50;;;7.40;99.90;;;;;;4822606;29;20589;-88
2021/12/08 11:13:33;;;;;;;4.93;1.15;;;7.20;99.90;;;;;;4807917;29;20409;-89
2021/12/08 11:16:12;;;;;;;2.17;1.90;;;7.20;99.90;;;;;;4822154;29;20082;-88
2021/12/08 11:18:42;;;;;;;2.92;1.90;;;6.50;99.90;;;;;;4838059;29;20051;-88
2021/12/08 11:21:24;;;;;;;4.85;1.50;;;6.90;99.90;;;;;;4837471;29;20054;-88
2021/12/08 11:23:58;;;;;;;3.22;1.67;;;6.70;99.90;;;;;;4807237;29;20065;-89
2021/12/08 11:26:35;;;;;;;4.03;2.05;;;6.60;99.90;;;;;;4837553;29;20054;-88
2021/12/08 11:29:08;;;;;;;5.00;1.63;;;6.80;99.90;;;;;;4807894;29;20063;-89
2021/12/08 11:31:47;;;;;;;8.45;2.08;;;6.30;99.90;;;;;;4793015;29;20058;-88
2021/12/08 11:34:27;;;;;;;3.95;1.70;;;7.10;99.90;;;;;;4807266;29;20053;-89
2021/12/08 11:36:58;;;;;;;2.70;1.42;;;6.00;99.90;;;;;;4806959;29;20046;-88
2021/12/08 11:39:33;;;;;;;3.83;1.70;;;6.00;99.90;;;;;;4837513;29;20054;-88
2021/12/08 11:42:06;;;;;;;5.68;1.80;;;5.90;99.90;;;;;;4807132;29;20058;-88
2021/12/08 11:44:35;;;;;;;6.13;2.13;;;5.80;99.90;;;;;;4807493;29;20051;-88
2021/12/08 11:47:08;;;;;;;3.75;2.53;;;5.80;99.90;;;;;;4837602;29;20114;-89
2021/12/08 11:49:40;;;;;;;3.75;1.77;;;5.70;99.90;;;;;;4810497;29;20190;-89
2021/12/08 11:52:10;;;;;;;3.53;2.03;;;5.70;99.90;;;;;;4825350;29;20046;-88
2021/12/08 11:54:38;;;;;;;3.63;1.88;;;5.70;99.90;;;;;;4841347;29;20055;-88
2021/12/08 11:57:17;;;;;;;2.30;1.70;;;5.60;99.90;;;;;;4840472;29;20050;-89
2021/12/08 11:59:56;;;;;;;9.20;2.22;;;5.50;99.90;;;;;;4810519;29;20054;-88
2021/12/08 12:02:45;;;;;;;7.25;3.13;;;6.50;99.90;;;;;;4810003;29;20073;-89
2021/12/08 12:05:16;;;;;;;6.05;1.88;;;5.60;99.90;;;;;;4810012;29;20057;-89
2021/12/08 12:07:42;;;;;;;3.05;2.10;;;5.60;99.90;;;;;;4795635;29;20145;-87
2021/12/08 12:10:11;;;;;;;2.28;2.05;;;5.50;99.90;;;;;;4794712;29;20058;-88
2021/12/08 12:12:39;;;;;;;2.35;1.90;;;5.50;99.90;;;;;;4825120;29;20057;-88
2021/12/08 12:15:15;;;;;;;3.88;2.22;;;5.00;99.90;;;;;;4810125;29;20093;-89
2021/12/08 12:17:45;;;;;;;2.85;1.92;;;5.50;99.90;;;;;;4796586;29;20058;-88
2021/12/08 12:20:17;;;;;;;2.53;1.83;;;5.40;99.90;;;;;;4794504;29;20066;-89
2021/12/08 12:23:21;;;;;;;5.55;2.20;;;5.40;99.90;;;;;;4795003;29;20050;-89
2021/12/08 12:26:06;;;;;;;3.42;1.80;;;5.40;99.90;;;;;;4810010;29;20051;-89
2021/12/08 12:28:41;;;;;;;2.30;1.80;;;5.40;99.90;;;;;;4795353;29;20054;-89
2021/12/08 12:31:26;;;;;;;4.45;2.28;;;5.40;99.90;;;;;;4824606;29;20055;-88
2021/12/08 12:33:54;;;;;;;4.63;1.98;;;5.30;99.90;;;;;;4794838;29;20137;-88
2021/12/08 12:36:30;;;;;;;3.92;2.08;;;5.40;99.90;;;;;;4824581;29;20058;-88
2021/12/08 12:39:31;;;;;;;4.30;1.92;;;5.10;99.90;;;;;;4794924;29;20072;-88
2021/12/08 12:42:13;;;;;;;4.03;2.13;;;5.40;99.90;;;;;;4690933;30;20409;-89
2021/12/08 12:44:42;;;;;;;3.25;1.70;;;5.40;99.90;;;;;;4785826;29;20073;-88
2021/12/08 12:47:23;;;;;;;4.97;1.90;;;6.00;99.90;;;;;;4792652;29;20046;-88
2021/12/08 12:50:22;;;;;;;6.63;2.72;;;5.40;99.90;;;;;;4794554;29;20046;-86
2021/12/08 12:52:54;;;;;;;5.53;3.10;;;5.40;99.90;;;;;;4825567;29;20078;-88
2021/12/08 12:55:30;;;;;;;4.53;1.73;;;5.30;99.90;;;;;;4807805;29;20077;-88
2021/12/08 12:58:05;;;;;;;2.85;1.65;;;6.40;99.90;;;;;;4820120;29;20057;-88
2021/12/08 13:01:02;;;;;;;8.35;1.80;;;5.30;99.90;;;;;;4819743;29;20513;-88
2021/12/08 13:03:51;;;;;;;1.88;1.73;;;5.30;99.90;;;;;;4800998;29;20070;-88
2021/12/08 13:06:45;;;;;;;5.50;2.20;;;5.30;99.90;;;;;;4854629;29;20452;-88
2021/12/08 13:09:42;;;;;;;6.43;2.03;;;5.30;99.90;;;;;;4854530;29;20054;-89
2021/12/08 13:12:17;;;;;;;3.78;2.20;;;5.30;99.90;;;;;;4823938;29;20087;-89
2021/12/08 13:14:45;;;;;;;2.42;2.22;;;5.40;99.90;;;;;;4824462;29;20061;-88
2021/12/08 13:17:14;;;;;;;3.08;1.73;;;5.70;99.90;;;;;;4854441;29;20074;-88
2021/12/08 13:19:49;;;;;;;5.60;2.17;;;5.40;99.90;;;;;;4839600;29;20054;-88
2021/12/08 13:22:44;;;;;;;5.43;2.08;;;5.30;99.90;;;;;;4854282;29;20502;-88
2021/12/08 13:25:51;;;;;;;3.17;2.20;;;5.30;99.90;;;;;;4808584;29;20144;-89
2021/12/08 13:28:22;;;;;;;4.57;1.73;;;5.30;99.90;;;;;;4823671;29;20047;-89
2021/12/08 13:31:19;;;;;;;2.33;1.60;;;5.30;99.90;;;;;;4824512;29;20065;-88
2021/12/08 13:33:50;;;;;;;3.30;1.58;;;5.30;99.90;;;;;;4820368;29;20155;-90
2021/12/08 13:36:22;;;;;;;4.35;2.08;;;5.30;99.90;;;;;;4800903;29;20053;-88
2021/12/08 13:38:54;;;;;;;1.40;1.30;;;5.30;99.90;;;;;;4838878;29;20446;-88
2021/12/08 13:41:21;;;;;;;8.10;1.92;;;5.30;99.90;;;;;;4807921;29;20065;-88
2021/12/08 13:43:51;;;;;;;2.28;1.38;;;5.30;99.90;;;;;;4808602;29;20058;-88
2021/12/08 13:46:36;;;;;;;6.45;2.22;;;5.30;99.90;;;;;;4851747;29;20518;-88
2021/12/08 13:49:24;;;;;;;4.88;1.98;;;5.50;99.90;;;;;;4808507;29;20490;-89
2021/12/08 13:52:08;;;;;;;4.30;1.85;;;5.30;99.90;;;;;;4808697;29;20566;-89
2021/12/08 13:54:36;;;;;;;5.45;2.15;;;5.30;99.90;;;;;;4823544;29;20095;-89
2021/12/08 13:57:22;;;;;;;7.20;2.00;;;5.30;99.90;;;;;;4853809;29;20050;-89
2021/12/08 13:59:58;;;;;;;6.82;2.13;;;5.50;99.90;;;;;;4824016;29;20050;-89
2021/12/08 14:02:53;;;;;;;4.03;1.60;;;6.50;99.90;;;;;;4838207;29;20387;-89
2021/12/08 14:05:18;;;;;;;3.65;1.60;;;5.80;99.90;;;;;;4792517;29;20122;-87
2021/12/08 14:07:57;;;;;;;7.27;1.97;;;5.80;99.90;;;;;;4824115;29;20175;-88
2021/12/08 14:10:23;;;;;;;2.75;1.48;;;5.70;99.90;;;;;;4822908;29;20059;-89